createdAt,value
2022-09-12T00:00:07.368Z,102830.69
2022-09-12T00:02:33.766Z,102806.09
2022-09-12T00:05:00.197Z,102875.06
2022-09-12T00:07:26.611Z,102877.94
2022-09-12T00:09:53.018Z,102837.66
2022-09-12T00:12:19.495Z,102892.66
2022-09-12T00:14:45.918Z,102869.25
2022-09-12T00:17:12.366Z,102808.66
2022-09-12T00:19:38.772Z,102820.72
2022-09-12T00:22:05.150Z,102858.81
2022-09-12T00:24:31.559Z,102861.44
2022-09-12T00:26:57.897Z,102809.59
2022-09-12T00:29:24.336Z,102871.00
2022-09-12T00:31:50.847Z,102870.28
2022-09-12T00:34:17.526Z,102819.69
2022-09-12T00:36:44.036Z,102874.72
2022-09-12T00:39:17.181Z,102884.75
2022-09-12T00:41:44.471Z,102923.94
2022-09-12T00:44:10.839Z,102923.94
2022-09-12T00:46:48.758Z,102921.88
2022-09-12T00:49:21.317Z,102927.16
2022-09-12T00:51:52.625Z,102914.09
2022-09-12T00:54:24.005Z,102954.97
2022-09-12T00:56:55.912Z,102881.72
2022-09-12T00:59:28.516Z,102918.38
2022-09-12T01:01:56.197Z,102825.03
2022-09-12T01:04:25.780Z,102892.25
2022-09-12T01:06:54.352Z,102935.31
2022-09-12T01:09:22.772Z,102962.59
2022-09-12T01:11:51.131Z,103015.44
2022-09-12T01:14:18.029Z,103020.19
2022-09-12T01:16:45.722Z,103047.09
2022-09-12T01:19:43.135Z,103086.03
2022-09-12T01:22:31.204Z,103042.44
2022-09-12T01:25:32.967Z,103079.81
2022-09-12T01:28:21.327Z,103055.72
2022-09-12T01:31:05.799Z,103089.34
2022-09-12T01:33:39.872Z,103083.97
2022-09-12T01:37:01.673Z,103149.41
2022-09-12T01:39:47.604Z,103110.84
2022-09-12T01:42:26.831Z,103259.97
2022-09-12T01:45:01.711Z,103269.53
2022-09-12T01:47:39.554Z,103332.03
2022-09-12T01:50:10.643Z,103354.47
2022-09-12T01:52:54.589Z,103562.38
2022-09-12T01:55:26.678Z,103581.22
2022-09-12T01:58:05.031Z,103611.78
2022-09-12T02:00:35.494Z,103626.53
2022-09-12T02:03:09.514Z,103643.69
2022-09-12T02:06:10.306Z,103742.78
2022-09-12T02:08:43.444Z,103774.72
2022-09-12T02:11:11.668Z,103748.56
2022-09-12T02:13:50.584Z,103778.09
2022-09-12T02:16:34.528Z,103778.00
2022-09-12T02:19:09.580Z,103680.13
2022-09-12T02:21:39.994Z,103638.75
2022-09-12T02:24:09.633Z,103628.84
2022-09-12T02:26:46.488Z,103569.34
2022-09-12T02:29:13.054Z,103580.94
2022-09-12T02:31:47.923Z,103596.66
2022-09-12T02:34:38.758Z,103618.78
2022-09-12T02:37:14.534Z,103600.56
2022-09-12T02:39:44.968Z,103560.25
2022-09-12T02:42:12.274Z,103597.78
2022-09-12T02:44:39.288Z,103587.97
2022-09-12T02:47:11.019Z,103553.72
2022-09-12T02:49:37.499Z,103566.44
2022-09-12T02:52:04.041Z,103597.38
2022-09-12T02:54:31.214Z,103564.38
2022-09-12T02:56:57.679Z,103543.44
2022-09-12T02:59:25.092Z,103552.03
2022-09-12T03:02:11.998Z,103555.72
2022-09-12T03:04:48.939Z,103509.41
2022-09-12T03:07:39.927Z,103545.81
2022-09-12T03:10:24.872Z,103542.00
2022-09-12T03:13:20.382Z,103548.56
2022-09-12T03:15:57.820Z,103542.00
2022-09-12T03:18:32.868Z,103546.78
2022-09-12T03:21:18.084Z,103487.09
2022-09-12T03:23:59.703Z,103497.81
2022-09-12T03:26:32.945Z,103535.66
2022-09-12T03:29:01.698Z,103508.38
2022-09-12T03:31:28.224Z,103536.31
2022-09-12T03:33:54.710Z,103536.75
2022-09-12T03:36:24.578Z,103506.69
2022-09-12T03:38:51.690Z,103541.16
2022-09-12T03:41:18.499Z,103546.41
2022-09-12T03:43:45.498Z,103493.03
2022-09-12T03:46:12.319Z,103519.66
2022-09-12T03:48:38.800Z,103565.66
2022-09-12T03:51:07.804Z,103550.06
2022-09-12T03:53:34.690Z,103546.56
2022-09-12T03:56:06.566Z,103563.13
2022-09-12T03:58:32.986Z,103523.75
2022-09-12T04:00:59.522Z,103594.44
2022-09-12T04:03:25.966Z,103585.50
2022-09-12T04:05:52.370Z,103545.53
2022-09-12T04:08:19.023Z,103544.56
2022-09-12T04:10:46.971Z,103495.28
2022-09-12T04:13:13.446Z,103570.75
2022-09-12T04:15:39.845Z,103582.81
2022-09-12T04:18:06.345Z,103552.22
2022-09-12T04:20:32.755Z,103518.88
2022-09-12T04:22:59.163Z,103513.50
2022-09-12T04:25:25.576Z,103563.72
2022-09-12T04:27:52.027Z,103596.97
2022-09-12T04:30:19.008Z,103623.84
2022-09-12T04:32:45.435Z,103592.81
2022-09-12T04:35:11.794Z,103601.50
2022-09-12T04:37:38.218Z,103590.69
2022-09-12T04:40:04.922Z,103533.88
2022-09-12T04:42:31.368Z,103564.50
2022-09-12T04:44:57.767Z,103664.00
2022-09-12T04:47:24.112Z,103653.81
2022-09-12T04:49:50.512Z,103593.28
2022-09-12T04:52:16.970Z,103655.09
2022-09-12T04:54:43.439Z,103646.47
2022-09-12T04:57:10.522Z,103702.34
2022-09-12T04:59:38.370Z,103686.13
2022-09-12T05:02:04.869Z,103677.44
2022-09-12T05:04:31.584Z,103684.94
2022-09-12T05:06:58.083Z,103632.00
2022-09-12T05:09:24.565Z,103654.56
2022-09-12T05:12:06.884Z,103677.78
2022-09-12T05:14:34.246Z,103723.22
2022-09-12T05:17:01.525Z,103709.34
2022-09-12T05:19:29.382Z,103715.25
2022-09-12T05:21:55.795Z,103756.72
2022-09-12T05:24:22.268Z,103689.25
2022-09-12T05:26:49.085Z,103746.88
2022-09-12T05:29:15.909Z,103770.56
2022-09-12T05:31:42.446Z,103805.19
2022-09-12T05:34:09.460Z,103767.91
2022-09-12T05:36:36.304Z,103851.16
2022-09-12T05:39:03.659Z,103860.13
2022-09-12T05:41:31.953Z,103855.00
2022-09-12T05:44:00.779Z,103922.13
2022-09-12T05:46:29.989Z,103935.66
2022-09-12T05:48:56.948Z,103918.44
2022-09-12T05:51:28.872Z,103971.50
2022-09-12T05:53:57.591Z,103971.25
2022-09-12T05:56:26.431Z,103913.66
2022-09-12T05:58:57.100Z,103953.47
2022-09-12T06:01:24.259Z,103959.94
2022-09-12T06:03:53.185Z,103981.75
2022-09-12T06:06:22.392Z,104004.13
2022-09-12T06:08:51.378Z,103959.59
2022-09-12T06:11:21.041Z,104006.19
2022-09-12T06:13:47.897Z,104001.63
2022-09-12T06:16:16.976Z,103941.34
2022-09-12T06:18:48.947Z,104003.66
2022-09-12T06:21:16.040Z,103974.56
2022-09-12T06:23:43.024Z,103943.91
2022-09-12T06:26:10.667Z,103994.00
2022-09-12T06:28:39.732Z,103861.59
2022-09-12T06:31:11.455Z,103918.75
2022-09-12T06:33:40.758Z,103937.31
2022-09-12T06:36:16.435Z,103921.53
2022-09-12T06:38:43.105Z,103895.22
2022-09-12T06:41:11.848Z,103805.09
2022-09-12T06:43:39.124Z,103764.22
2022-09-12T06:46:06.048Z,103652.53
2022-09-12T06:48:32.603Z,103667.22
2022-09-12T06:51:09.065Z,103569.50
2022-09-12T06:53:36.209Z,103505.13
2022-09-12T06:56:06.210Z,103488.00
2022-09-12T06:58:33.999Z,103414.56
2022-09-12T07:01:06.416Z,103362.34
2022-09-12T07:03:34.180Z,103226.75
2022-09-12T07:06:09.776Z,103123.78
2022-09-12T07:08:36.717Z,103039.28
2022-09-12T07:11:10.539Z,102954.69
2022-09-12T07:13:37.438Z,102924.09
2022-09-12T07:16:05.563Z,102827.47
2022-09-12T07:18:35.355Z,102774.41
2022-09-12T07:21:02.663Z,102765.69
2022-09-12T07:23:32.313Z,102737.22
2022-09-12T07:26:00.733Z,102762.91
2022-09-12T07:28:29.554Z,102687.88
2022-09-12T07:30:56.984Z,102663.38
2022-09-12T07:33:27.344Z,102632.25
2022-09-12T07:35:54.068Z,102652.09
2022-09-12T07:38:21.733Z,102616.72
2022-09-12T07:40:48.802Z,102654.41
2022-09-12T07:43:15.265Z,102585.56
2022-09-12T07:45:41.760Z,102558.94
2022-09-12T07:48:09.114Z,102601.63
2022-09-12T07:50:36.236Z,102568.84
2022-09-12T07:53:04.119Z,102625.84
2022-09-12T07:55:31.439Z,102632.97
2022-09-12T07:57:57.991Z,102501.50
2022-09-12T08:00:24.426Z,102418.03
2022-09-12T08:02:52.219Z,102306.75
2022-09-12T08:05:19.448Z,102314.78
2022-09-12T08:07:45.957Z,102274.06
2022-09-12T08:10:12.726Z,102250.38
2022-09-12T08:12:39.160Z,102174.53
2022-09-12T08:15:06.085Z,102238.13
2022-09-12T08:17:32.555Z,102245.44
2022-09-12T08:19:58.951Z,102208.56
2022-09-12T08:22:25.370Z,102143.78
2022-09-12T08:24:51.818Z,102195.94
2022-09-12T08:27:18.848Z,102171.63
2022-09-12T08:29:45.298Z,102104.91
2022-09-12T08:32:11.768Z,102129.53
2022-09-12T08:34:38.221Z,102057.94
2022-09-12T08:37:04.762Z,102087.44
2022-09-12T08:39:31.356Z,102098.13
2022-09-12T08:42:06.257Z,102085.94
2022-09-12T08:45:04.245Z,102118.69
2022-09-12T08:47:39.938Z,102143.91
2022-09-12T08:50:09.229Z,102153.56
2022-09-12T08:52:54.076Z,102150.06
2022-09-12T08:55:37.531Z,102139.41
2022-09-12T08:58:19.342Z,102100.09
2022-09-12T09:00:54.735Z,102092.13
2022-09-12T09:03:36.959Z,102064.06
2022-09-12T09:06:29.369Z,102084.38
2022-09-12T09:09:08.137Z,102060.16
2022-09-12T09:11:40.813Z,102041.69
2022-09-12T09:14:20.255Z,102029.00
2022-09-12T09:16:49.966Z,101995.09
2022-09-12T09:19:16.346Z,101998.25
2022-09-12T09:21:59.825Z,101935.94
2022-09-12T09:24:39.782Z,101910.78
2022-09-12T09:27:40.558Z,102131.88
2022-09-12T09:30:19.993Z,102257.88
2022-09-12T09:32:51.036Z,102210.69
2022-09-12T09:35:20.552Z,102236.94
2022-09-12T09:38:24.546Z,102214.97
2022-09-12T09:40:50.979Z,102193.81
2022-09-12T09:43:25.981Z,102130.53
2022-09-12T09:45:52.941Z,102124.63
2022-09-12T09:48:44.434Z,102056.78
2022-09-12T09:51:11.783Z,102102.75
2022-09-12T09:53:49.016Z,102056.06
2022-09-12T09:56:39.212Z,102076.22
2022-09-12T09:59:18.057Z,102035.72
2022-09-12T10:01:45.392Z,102007.72
2022-09-12T10:04:19.293Z,102030.72
2022-09-12T10:06:45.825Z,101995.75
2022-09-12T10:09:14.938Z,102034.31
2022-09-12T10:11:45.690Z,101994.50
2022-09-12T10:14:29.659Z,102039.56
2022-09-12T10:16:56.433Z,102003.59
2022-09-12T10:19:33.097Z,101990.97
2022-09-12T10:22:00.152Z,101930.72
2022-09-12T10:24:34.873Z,101997.72
2022-09-12T10:27:12.286Z,101916.72
2022-09-12T10:29:46.626Z,101896.22
2022-09-12T10:32:21.318Z,101955.44
2022-09-12T10:34:48.013Z,101930.47
2022-09-12T10:37:23.611Z,101933.59
2022-09-12T10:39:55.973Z,101887.16
2022-09-12T10:42:45.973Z,101968.50
2022-09-12T10:45:41.490Z,101950.00
2022-09-12T10:48:23.001Z,101944.94
2022-09-12T10:50:49.473Z,101851.63
2022-09-12T10:53:21.716Z,101914.88
2022-09-12T10:55:51.186Z,101920.63
2022-09-12T10:58:31.999Z,101901.69
2022-09-12T11:01:23.190Z,101902.25
2022-09-12T11:04:26.439Z,101910.63
2022-09-12T11:07:19.525Z,101887.69
2022-09-12T11:10:04.724Z,101879.22
2022-09-12T11:12:55.866Z,101865.91
2022-09-12T11:15:46.743Z,101901.50
2022-09-12T11:18:49.131Z,101929.56
2022-09-12T11:21:34.031Z,101866.44
2022-09-12T11:24:15.484Z,101890.94
2022-09-12T11:26:57.294Z,101885.44
2022-09-12T11:29:49.082Z,101920.47
2022-09-12T11:32:46.302Z,101905.00
2022-09-12T11:35:17.624Z,101898.66
2022-09-12T11:38:02.999Z,101895.28
2022-09-12T11:40:42.094Z,101882.50
2022-09-12T11:43:14.671Z,101874.84
2022-09-12T11:45:45.919Z,101859.59
2022-09-12T11:48:19.872Z,101881.59
2022-09-12T11:50:46.307Z,101850.59
2022-09-12T11:53:31.672Z,101839.75
2022-09-12T11:56:06.006Z,101862.38
2022-09-12T11:58:32.697Z,101870.88
2022-09-12T12:01:21.504Z,101877.69
2022-09-12T12:03:49.224Z,101827.78
2022-09-12T12:06:26.868Z,101880.34
2022-09-12T12:08:53.881Z,101815.09
2022-09-12T12:11:44.722Z,101856.81
2022-09-12T12:14:22.510Z,101831.19
2022-09-12T12:16:50.116Z,101783.97
2022-09-12T12:19:16.478Z,101760.78
2022-09-12T12:21:52.445Z,101816.31
2022-09-12T12:24:25.962Z,101829.91
2022-09-12T12:27:03.629Z,101827.50
2022-09-12T12:29:44.113Z,101810.13
2022-09-12T12:32:10.783Z,101816.59
2022-09-12T12:34:38.617Z,101823.69
2022-09-12T12:37:20.303Z,101808.59
2022-09-12T12:39:46.780Z,101809.13
2022-09-12T12:42:35.051Z,101817.66
2022-09-12T12:45:04.077Z,101770.75
2022-09-12T12:47:36.525Z,101745.09
2022-09-12T12:50:10.447Z,101755.25
2022-09-12T12:52:58.729Z,101731.53
2022-09-12T12:55:35.753Z,101745.94
2022-09-12T12:58:03.512Z,101736.59
2022-09-12T13:00:40.082Z,101755.25
2022-09-12T13:03:11.234Z,101731.53
2022-09-12T13:05:46.866Z,101754.72
2022-09-12T13:08:19.305Z,101589.56
2022-09-12T13:10:54.385Z,101697.91
2022-09-12T13:13:31.315Z,101726.31
2022-09-12T13:15:58.252Z,101753.56
2022-09-12T13:18:38.906Z,101713.09
2022-09-12T13:21:13.200Z,101725.13
2022-09-12T13:23:40.257Z,101685.47
2022-09-12T13:26:25.197Z,101698.97
2022-09-12T13:29:19.254Z,101723.16
2022-09-12T13:31:49.013Z,101699.78
2022-09-12T13:34:22.504Z,101698.09
2022-09-12T13:37:16.773Z,101696.03
2022-09-12T13:40:16.984Z,101734.13
2022-09-12T13:42:48.941Z,101817.97
2022-09-12T13:45:20.033Z,101826.72
2022-09-12T13:47:50.439Z,101839.59
2022-09-12T13:50:22.689Z,101858.97
2022-09-12T13:52:55.721Z,101849.53
2022-09-12T13:55:41.211Z,101867.09
2022-09-12T13:58:34.175Z,101893.13
2022-09-12T14:01:14.087Z,101709.28
2022-09-12T14:03:43.265Z,101593.84
2022-09-12T14:06:10.238Z,101460.25
2022-09-12T14:08:40.283Z,101389.63
2022-09-12T14:11:29.518Z,101332.56
2022-09-12T14:13:59.924Z,101296.75
2022-09-12T14:16:26.380Z,101248.97
2022-09-12T14:18:52.887Z,101314.13
2022-09-12T14:21:28.090Z,101331.81
2022-09-12T14:23:54.762Z,101377.13
2022-09-12T14:26:21.286Z,101362.22
2022-09-12T14:28:48.182Z,101282.75
2022-09-12T14:31:14.628Z,101304.13
2022-09-12T14:34:08.595Z,101285.28
2022-09-12T14:37:06.290Z,101304.13
2022-09-12T14:39:44.745Z,101265.19
2022-09-12T14:42:22.337Z,101246.72
2022-09-12T14:45:15.555Z,101216.63
2022-09-12T14:47:43.948Z,101231.28
2022-09-12T14:50:24.408Z,101203.28
2022-09-12T14:53:20.833Z,101291.63
2022-09-12T14:55:58.685Z,101264.84
2022-09-12T14:58:28.148Z,101319.28
2022-09-12T15:01:01.636Z,101357.28
2022-09-12T15:03:32.118Z,101347.28
2022-09-12T15:06:00.056Z,101355.47
2022-09-12T15:08:26.986Z,101378.50
2022-09-12T15:10:53.478Z,101257.41
2022-09-12T15:13:22.783Z,101232.59
2022-09-12T15:15:52.528Z,101222.53
2022-09-12T15:18:20.538Z,101272.22
2022-09-12T15:20:50.729Z,101237.97
2022-09-12T15:23:38.815Z,101235.44
2022-09-12T15:26:05.967Z,101232.22
2022-09-12T15:28:33.543Z,101223.78
2022-09-12T15:31:24.382Z,101283.28
2022-09-12T15:33:51.142Z,101382.16
2022-09-12T15:36:20.509Z,101390.72
2022-09-12T15:38:47.838Z,101349.44
2022-09-12T15:41:20.664Z,101280.31
2022-09-12T15:43:47.987Z,101218.56
2022-09-12T15:46:16.016Z,101275.75
2022-09-12T15:48:42.784Z,101322.13
2022-09-12T15:51:15.626Z,101367.38
2022-09-12T15:53:43.261Z,101355.56
2022-09-12T15:56:09.835Z,101330.75
2022-09-12T15:58:36.517Z,101534.28
2022-09-12T16:01:03.518Z,101766.66
2022-09-12T16:03:30.529Z,101733.28
2022-09-12T16:05:59.250Z,101730.09
2022-09-12T16:08:25.872Z,101713.84
2022-09-12T16:10:59.084Z,101760.53
2022-09-12T16:13:26.537Z,101640.97
2022-09-12T16:15:57.335Z,101667.56
2022-09-12T16:18:24.486Z,101594.06
2022-09-12T16:20:54.746Z,101611.56
2022-09-12T16:23:21.588Z,101546.88
2022-09-12T16:25:58.164Z,101513.59
2022-09-12T16:28:24.696Z,101500.81
2022-09-12T16:30:58.858Z,101490.13
2022-09-12T16:33:26.436Z,101472.31
2022-09-12T16:35:53.122Z,101493.06
2022-09-12T16:38:19.698Z,101490.94
2022-09-12T16:40:48.614Z,101478.44
2022-09-12T16:43:15.041Z,101444.91
2022-09-12T16:45:41.550Z,101431.88
2022-09-12T16:48:08.124Z,101385.31
2022-09-12T16:50:34.657Z,101388.81
2022-09-12T16:53:01.172Z,101409.28
2022-09-12T16:55:27.645Z,101438.22
2022-09-12T16:57:54.251Z,101443.53
2022-09-12T17:00:21.100Z,101447.84
2022-09-12T17:02:47.599Z,101478.34
2022-09-12T17:05:15.298Z,101402.09
2022-09-12T17:07:42.254Z,101428.75
2022-09-12T17:10:08.943Z,101395.25
2022-09-12T17:12:35.444Z,101359.91
2022-09-12T17:15:01.933Z,101453.78
2022-09-12T17:17:28.363Z,101429.31
2022-09-12T17:19:54.773Z,101455.09
2022-09-12T17:22:21.194Z,101359.38
2022-09-12T17:24:47.987Z,101460.16
2022-09-12T17:27:14.463Z,101447.41
2022-09-12T17:29:40.872Z,101346.06
2022-09-12T17:32:07.318Z,101451.34
2022-09-12T17:34:33.813Z,101457.16
2022-09-12T17:37:00.222Z,101385.16
2022-09-12T17:39:26.790Z,101420.25
2022-09-12T17:41:53.280Z,101439.44
2022-09-12T17:44:19.832Z,101447.94
2022-09-12T17:46:46.328Z,101401.91
2022-09-12T17:49:18.091Z,101419.19
2022-09-12T17:51:44.577Z,101443.41
2022-09-12T17:54:14.415Z,101430.63
2022-09-12T17:56:40.933Z,101435.94
2022-09-12T17:59:08.952Z,101404.28
2022-09-12T18:01:35.486Z,101472.63
2022-09-12T18:04:02.124Z,101428.22
2022-09-12T18:06:30.252Z,101495.84
2022-09-12T18:09:00.659Z,101415.41
2022-09-12T18:11:27.108Z,101494.16
2022-09-12T18:13:53.634Z,101430.41
2022-09-12T18:16:20.366Z,101481.22
2022-09-12T18:18:46.961Z,101467.94
2022-09-12T18:21:13.434Z,101479.97
2022-09-12T18:23:39.917Z,101463.31
2022-09-12T18:26:08.978Z,101467.28
2022-09-12T18:28:37.526Z,101448.66
2022-09-12T18:31:05.185Z,101451.03
2022-09-12T18:33:31.622Z,101435.03
2022-09-12T18:36:04.702Z,101380.09
2022-09-12T18:38:31.406Z,101430.28
2022-09-12T18:41:13.121Z,101404.09
2022-09-12T18:43:39.705Z,101383.72
2022-09-12T18:46:14.796Z,101394.03
2022-09-12T18:48:41.918Z,101372.47
2022-09-12T18:51:15.795Z,101375.72
2022-09-12T18:53:42.745Z,101413.44
2022-09-12T18:56:12.138Z,101330.75
2022-09-12T18:58:40.245Z,101376.13
2022-09-12T19:01:15.337Z,101382.00
2022-09-12T19:03:42.098Z,101344.91
2022-09-12T19:06:17.525Z,101353.56
2022-09-12T19:08:45.394Z,101409.59
2022-09-12T19:11:12.221Z,101387.47
2022-09-12T19:13:41.986Z,101369.72
2022-09-12T19:16:11.133Z,101377.97
2022-09-12T19:18:39.078Z,101397.13
2022-09-12T19:21:07.527Z,101424.22
2022-09-12T19:23:35.227Z,101434.75
2022-09-12T19:26:06.240Z,101438.19
2022-09-12T19:28:32.942Z,101425.75
2022-09-12T19:30:59.457Z,101407.44
2022-09-12T19:33:26.084Z,101426.19
2022-09-12T19:35:52.573Z,101477.72
2022-09-12T19:38:19.295Z,101457.06
2022-09-12T19:40:59.080Z,101441.28
2022-09-12T19:43:25.928Z,101478.75
2022-09-12T19:45:52.900Z,101471.00
2022-09-12T19:48:21.034Z,101475.94
2022-09-12T19:50:48.436Z,101453.19
2022-09-12T19:53:16.023Z,101468.28
2022-09-12T19:55:43.287Z,101442.44
2022-09-12T19:58:09.718Z,101482.41
2022-09-12T20:00:36.937Z,101510.16
2022-09-12T20:03:04.727Z,101552.75
2022-09-12T20:05:34.600Z,101546.81
2022-09-12T20:08:01.671Z,101506.69
2022-09-12T20:10:28.315Z,101527.41
2022-09-12T20:12:54.729Z,101517.72
2022-09-12T20:15:21.219Z,101470.97
2022-09-12T20:17:48.110Z,101472.88
2022-09-12T20:20:14.545Z,101578.03
2022-09-12T20:22:40.983Z,101525.25
2022-09-12T20:25:08.027Z,101559.38
2022-09-12T20:27:34.468Z,101559.41
2022-09-12T20:30:00.882Z,101537.72
2022-09-12T20:32:27.303Z,101515.63
2022-09-12T20:34:53.721Z,101536.72
2022-09-12T20:37:20.203Z,101506.66
2022-09-12T20:39:50.627Z,101505.44
2022-09-12T20:42:17.318Z,101612.22
2022-09-12T20:44:43.788Z,101607.28
2022-09-12T20:47:10.232Z,101567.25
2022-09-12T20:49:36.693Z,101628.97
2022-09-12T20:52:03.315Z,101617.31
2022-09-12T20:54:29.731Z,101630.81
2022-09-12T20:56:56.169Z,101577.84
2022-09-12T20:59:22.600Z,101586.63
2022-09-12T21:01:49.580Z,101629.41
2022-09-12T21:04:16.173Z,101634.72
2022-09-12T21:06:42.612Z,101611.53
2022-09-12T21:09:09.177Z,101620.69
2022-09-12T21:11:35.664Z,101595.78
2022-09-12T21:14:02.234Z,101612.13
2022-09-12T21:16:28.717Z,101625.28
2022-09-12T21:18:57.712Z,101638.16
2022-09-12T21:21:25.312Z,101625.56
2022-09-12T21:23:51.904Z,101599.59
2022-09-12T21:26:18.950Z,101641.66
2022-09-12T21:28:45.435Z,101620.25
2022-09-12T21:31:11.904Z,101585.34
2022-09-12T21:33:38.426Z,101542.91
2022-09-12T21:36:06.308Z,101581.44
2022-09-12T21:38:33.147Z,101585.03
2022-09-12T21:41:07.767Z,101638.59
2022-09-12T21:43:34.734Z,101639.38
2022-09-12T21:46:02.171Z,101577.06
2022-09-12T21:48:29.045Z,101603.53
2022-09-12T21:50:55.432Z,101633.88
2022-09-12T21:53:22.361Z,101647.00
2022-09-12T21:55:49.116Z,101628.00
2022-09-12T21:58:16.013Z,101599.56
2022-09-12T22:00:43.214Z,101628.97
2022-09-12T22:03:10.690Z,101601.56
2022-09-12T22:05:38.577Z,101640.19
2022-09-12T22:08:05.047Z,101626.56
2022-09-12T22:10:31.450Z,101630.91
2022-09-12T22:12:58.109Z,101625.03
2022-09-12T22:15:41.453Z,101646.50
2022-09-12T22:18:08.208Z,101593.22
2022-09-12T22:20:34.608Z,101608.97
2022-09-12T22:23:01.063Z,101598.38
2022-09-12T22:25:27.632Z,101652.88
2022-09-12T22:27:54.877Z,101608.81
2022-09-12T22:30:22.111Z,101605.25
2022-09-12T22:32:49.957Z,101571.94
2022-09-12T22:35:18.363Z,101649.97
2022-09-12T22:37:44.824Z,101633.78
2022-09-12T22:40:11.773Z,101536.41
2022-09-12T22:42:38.478Z,101631.97
2022-09-12T22:45:06.006Z,101626.56
2022-09-12T22:47:32.459Z,101650.53
2022-09-12T22:49:58.871Z,101592.00
2022-09-12T22:52:25.368Z,101630.91
2022-09-12T22:54:51.847Z,101630.38
2022-09-12T22:57:19.102Z,101623.50
2022-09-12T22:59:45.580Z,101578.38
2022-09-12T23:02:12.036Z,101603.59
2022-09-12T23:04:38.475Z,101581.72
2022-09-12T23:07:05.079Z,101599.59
2022-09-12T23:09:35.241Z,101571.22
2022-09-12T23:12:02.702Z,101516.97
2022-09-12T23:14:29.362Z,101614.13
2022-09-12T23:16:55.786Z,101606.13
2022-09-12T23:19:22.382Z,101605.63
2022-09-12T23:21:48.985Z,101572.84
2022-09-12T23:24:15.425Z,101561.97
2022-09-12T23:26:41.927Z,101589.69
2022-09-12T23:29:08.892Z,101594.66
2022-09-12T23:31:35.429Z,101595.22
2022-09-12T23:34:04.829Z,101576.19
2022-09-12T23:36:31.387Z,101545.47
2022-09-12T23:38:57.907Z,101532.88
2022-09-12T23:41:24.716Z,101598.91
2022-09-12T23:43:51.257Z,101584.91
2022-09-12T23:46:19.250Z,101580.47
2022-09-12T23:48:45.894Z,101521.28
2022-09-12T23:51:12.836Z,101582.22
2022-09-12T23:53:39.875Z,101575.75
2022-09-12T23:56:06.503Z,101585.75
2022-09-12T23:58:33.155Z,101574.72
